Terminal Aerodrome Forecast
Issued by NWS Binghamton, NY

Home | Current Version | Previous Version | Text Only | Print | Product List | Glossary On
Versions: 1 2 3 4 5 6 7 8 9 10 11 12 13 14 15 16 17 18 19 20 21 22
000
FTUS41 KBGM 271122
TAFAVP
TAF
KAVP 271122Z 2712/2812 VRB03KT P6SM FEW025
      TEMPO 2712/2715 5SM BR OVC015
     FM271500 19005KT P6SM BKN035
     FM271900 17010KT P6SM BKN060
     FM280300 23005KT P6SM BKN060
      TEMPO 2804/2808 -SHRA BKN035
     FM280800 30005KT P6SM BKN035=

USA.gov is the U.S. government's official web portal to all federal, state and local government web resources and services.